• Join FlightAware (Why Join?)
  • Login
  • US Flag 
05:16AM EST


 

Airport Tracker/Info


-or-


 

Live Flight TrackerFlight Track Log ✈ AAH1103 ✈ 06-May-2013 ✈ PHNL - PHLI / LIH

Flight Track Log - Related Links

Times and Time Zones

All times are in EDT time to prevent confusion due to time zone crossing. See the AAH1103 flight status page for this flight to view local times or setup timezone preferences in your user account.

Time Position Orientation Groundspeed Altitude Reporting Facility
EDT Latitude Longitude Course Direction KTS MPH feet Rate Location/Type
11:20PM 21.3167 -157.9000 163° South 170 196 900  Level Honolulu Center
11:21PM 21.2667 -157.8833 163° South 170 196 3,100 1,740 Climbing Honolulu Center
11:22PM 21.2167 -157.9000 197° South 200 230 4,400 1,380 Climbing Honolulu Center
11:23PM 21.2000 -157.9667 255° West 180 207 5,900 1,380 Climbing Honolulu Center
11:25PM 21.2000 -158.0167 270° West 180 207 7,300 1,140 Climbing Honolulu Center
11:26PM 21.2000 -158.0667 270° West 210 242 8,300 900 Climbing Honolulu Center
11:27PM 21.2167 -158.1167 290° West 200 230 9,200 840 Climbing Honolulu Center
11:28PM 21.2500 -158.1667 306° West 200 230 10,000 360 Climbing Honolulu Center
11:29PM 21.2833 -158.2333 298° West 220 253 10,000  Level Honolulu Center
11:30PM 21.3000 -158.2833 290° West 230 265 10,000  Level Honolulu Center
11:31PM 21.3333 -158.3500 298° West 240 276 10,000  Level Honolulu Center
11:32PM 21.3667 -158.4167 298° West 240 276 10,000  Level Honolulu Center
11:33PM 21.3833 -158.4833 285° West 230 265 10,000  Level Honolulu Center
11:34PM 21.4167 -158.5500 298° West 240 276 10,000  Level Honolulu Center
11:35PM 21.4500 -158.6000 306° West 240 276 10,000  Level Honolulu Center
11:36PM 21.4667 -158.6667 285° West 240 276 10,000 -180 Level Honolulu Center
11:37PM 21.5000 -158.7333 298° West 240 276 9,700 -720 Descending Honolulu Center
11:38PM 21.5333 -158.8000 298° West 270 311 8,600 -1,200 Descending Honolulu Center
11:39PM 21.5667 -158.8833 293° West 260 299 7,400 -1,200 Descending Honolulu Center
11:40PM 21.6000 -158.9500 298° West 250 288 6,300 -1,200 Descending Honolulu Center
11:41PM 21.6333 -159.0167 298° West 240 276 5,100 -1,200 Descending Honolulu Center
11:42PM 21.6500 -159.0667 290° West 240 276 4,000 -1,200 Descending Honolulu Center
11:43PM 21.7000 -159.1333 309° West 250 288 2,800 -1,080 Descending Honolulu Center
11:44PM 21.7500 -159.1833 317° Northwest 240 276 1,900 -660 Descending Honolulu Center
11:45PM 21.8000 -159.2333 317° Northwest 230 265 1,500 -240 Descending Honolulu Center
11:46PM 21.8500 -159.2833 317° Northwest 220 253 1,500 -60 Level Honolulu Center
11:47PM 21.8833 -159.3000 335° Northwest 140 161 1,400 -300 Descending Honolulu Center
11:48PM 21.9000 -159.3333 298° West 100 115 1,000 -480 Descending Honolulu Center
11:49PM 21.9333 -159.3333 360° North 120 138 500 -540 Descending Honolulu Center